Time;durP1;ratioP1;P1;durP2;ratioP2;P2;SDS_P1;SDS_P2;PMS_P1;PMS_P2;Temp;Humidity;BMP_temperature;BMP_pressure;BME280_temperature;BME280_humidity;BME280_pressure;Samples;Min_cycle;Max_cycle;Signal;HPM_P1;HPM_P2
2022/03/08 00:00:10;;;;;;;69.90;32.75;;;;;;;0.33;100.00;100404.16;5068875;28;20078;-81
2022/03/08 00:02:36;;;;;;;50.58;25.25;;;;;;;0.23;100.00;100388.72;5053362;28;20033;-81
2022/03/08 00:05:01;;;;;;;60.28;29.25;;;;;;;0.22;100.00;100394.69;5050093;28;20120;-81
2022/03/08 00:07:28;;;;;;;52.78;27.45;;;;;;;0.20;100.00;100400.63;5050113;28;20032;-82
2022/03/08 00:09:55;;;;;;;50.92;24.73;;;;;;;0.11;100.00;100390.34;5051244;28;20028;-82
2022/03/08 00:12:21;;;;;;;54.35;25.90;;;;;;;0.13;100.00;100391.22;5051737;28;20040;-82
2022/03/08 00:14:46;;;;;;;52.38;27.08;;;;;;;0.12;100.00;100392.91;5049836;28;20450;-81
2022/03/08 00:17:12;;;;;;;58.40;30.17;;;;;;;0.13;100.00;100394.63;5050015;28;20025;-82
2022/03/08 00:19:37;;;;;;;49.70;24.45;;;;;;;0.13;100.00;100404.03;5054911;28;20115;-82
2022/03/08 00:22:03;;;;;;;48.22;23.52;;;;;;;0.08;100.00;100400.53;5053651;28;20158;-82
2022/03/08 00:24:28;;;;;;;49.03;23.90;;;;;;;-0.01;100.00;100391.94;5051959;28;20511;-81
2022/03/08 00:26:54;;;;;;;47.03;23.08;;;;;;;0.07;100.00;100409.94;5052278;28;20525;-81
2022/03/08 00:29:19;;;;;;;43.20;21.75;;;;;;;0.05;100.00;100409.09;5052123;28;20136;-81
2022/03/08 00:31:44;;;;;;;45.72;23.77;;;;;;;0.02;100.00;100406.50;5051927;28;20029;-81
2022/03/08 00:34:10;;;;;;;44.13;22.42;;;;;;;-0.04;100.00;100394.50;5052144;28;20037;-81
2022/03/08 00:36:36;;;;;;;48.80;22.50;;;;;;;-0.02;100.00;100405.59;5051956;28;20029;-81
2022/03/08 00:39:03;;;;;;;43.42;21.85;;;;;;;-0.06;100.00;100396.19;5052082;28;20041;-81
2022/03/08 00:41:28;;;;;;;44.42;21.40;;;;;;;-0.05;100.00;100407.28;5035195;28;20110;-82
2022/03/08 00:43:54;;;;;;;43.25;21.00;;;;;;;-0.06;100.00;100405.56;5051922;28;20555;-81
2022/03/08 00:46:19;;;;;;;49.20;20.80;;;;;;;-0.08;100.00;100405.56;5071592;28;20049;-81
2022/03/08 00:48:45;;;;;;;45.72;20.75;;;;;;;-0.15;100.00;100396.09;5071514;28;20127;-81
2022/03/08 00:51:11;;;;;;;39.33;19.65;;;;;;;-0.18;100.00;100395.22;5055057;28;20539;-81
2022/03/08 00:53:37;;;;;;;42.67;21.17;;;;;;;-0.21;100.00;100388.38;5071403;28;20416;-81
2022/03/08 00:56:03;;;;;;;40.20;21.23;;;;;;;-0.16;100.00;100396.09;5054967;28;20040;-81
2022/03/08 00:58:28;;;;;;;44.13;21.08;;;;;;;-0.18;100.00;100398.63;5071740;28;20481;-81
2022/03/08 01:00:54;;;;;;;39.15;20.35;;;;;;;-0.20;100.00;100394.34;5071407;28;20031;-81
2022/03/08 01:03:19;;;;;;;42.92;22.58;;;;;;;-0.21;100.00;100396.06;5071618;28;20048;-81
2022/03/08 01:05:45;;;;;;;54.90;27.42;;;;;;;-0.26;100.00;100380.63;5071533;28;20056;-81
2022/03/08 01:08:10;;;;;;;58.75;25.90;;;;;;;-0.27;100.00;100389.16;5071443;28;20388;-81
2022/03/08 01:10:36;;;;;;;54.55;27.38;;;;;;;-0.33;100.00;100389.13;5054563;28;20041;-81
2022/03/08 01:13:03;;;;;;;50.33;25.63;;;;;;;-0.39;100.00;100383.06;5071336;28;20027;-81
2022/03/08 01:15:28;;;;;;;48.08;24.73;;;;;;;-0.39;100.00;100390.75;5071392;28;20120;-81
2022/03/08 01:17:55;;;;;;;50.17;25.90;;;;;;;-0.41;100.00;100395.00;5071175;28;20119;-82
2022/03/08 01:20:21;;;;;;;51.20;25.23;;;;;;;-0.50;100.00;100390.66;5071767;28;20047;-81
2022/03/08 01:22:47;;;;;;;52.03;26.40;;;;;;;-0.45;100.00;100400.94;5069668;28;20028;-81
2022/03/08 01:25:16;;;;;;;56.78;31.38;;;;;;;-0.59;100.00;100385.41;5052709;28;20082;-81
2022/03/08 01:27:41;;;;;;;60.47;28.27;;;;;;;-0.52;100.00;100392.31;5052209;28;20057;-81
2022/03/08 01:30:10;;;;;;;54.42;26.02;;;;;;;-0.56;100.00;100390.59;5051815;28;20035;-81
2022/03/08 01:32:35;;;;;;;53.58;26.73;;;;;;;-0.56;100.00;100398.25;5052058;28;20514;-82
2022/03/08 01:35:01;;;;;;;52.65;27.00;;;;;;;-0.66;100.00;100373.44;5052220;28;20036;-81
2022/03/08 01:37:26;;;;;;;48.65;26.08;;;;;;;-0.71;100.00;100378.50;5052107;28;20079;-81
2022/03/08 01:39:52;;;;;;;50.80;26.65;;;;;;;-0.65;100.00;100393.91;5052131;28;20040;-81
2022/03/08 01:42:21;;;;;;;54.58;27.30;;;;;;;-0.64;100.00;100389.63;5052174;28;20061;-81
2022/03/08 01:44:47;;;;;;;57.50;29.27;;;;;;;-0.66;100.00;100394.75;5051924;28;20036;-81
2022/03/08 01:47:20;;;;;;;59.53;31.42;;;;;;;-0.68;100.00;100393.00;5053267;28;20044;-81
2022/03/08 01:49:47;;;;;;;60.30;30.55;;;;;;;-0.69;100.00;100393.84;5051585;28;20495;-81
2022/03/08 01:52:15;;;;;;;59.63;28.63;;;;;;;-0.89;100.00;100363.78;5053274;28;20029;-81
2022/03/08 01:54:41;;;;;;;59.05;28.67;;;;;;;-0.87;100.00;100377.47;5051764;28;20032;-81
2022/03/08 01:57:08;;;;;;;59.33;30.10;;;;;;;-0.72;100.00;100404.03;5053114;28;20025;-81
2022/03/08 01:59:33;;;;;;;58.10;27.80;;;;;;;-0.82;100.00;100400.53;5051572;28;20021;-81
2022/03/08 02:01:59;;;;;;;48.60;27.30;;;;;;;-0.86;100.00;100402.19;5051745;28;20473;-81
2022/03/08 02:04:24;;;;;;;55.42;28.88;;;;;;;-0.81;100.00;100415.88;5051553;28;20116;-81
2022/03/08 02:06:50;;;;;;;55.83;27.85;;;;;;;-0.81;100.00;100421.00;5052928;28;20427;-81
2022/03/08 02:09:15;;;;;;;55.38;26.85;;;;;;;-0.79;100.00;100424.44;5051629;28;20460;-82
2022/03/08 02:11:41;;;;;;;52.78;27.55;;;;;;;-0.84;100.00;100417.56;5052707;28;20429;-82
2022/03/08 02:14:07;;;;;;;57.92;28.35;;;;;;;-1.01;100.00;100394.38;5053025;28;20037;-82
2022/03/08 02:16:33;;;;;;;56.80;27.15;;;;;;;-0.84;100.00;100420.13;5051469;28;20120;-81
2022/03/08 02:18:58;;;;;;;61.83;30.40;;;;;;;-0.87;100.00;100413.28;5052407;28;20031;-81
2022/03/08 02:21:25;;;;;;;61.95;31.80;;;;;;;-0.91;100.00;100414.06;5051548;28;20068;-81
2022/03/08 02:23:51;;;;;;;65.75;31.25;;;;;;;-0.95;100.00;100399.53;5051195;28;20463;-81
2022/03/08 02:26:16;;;;;;;71.03;32.65;;;;;;;-0.89;100.00;100401.28;5051390;28;20116;-81
2022/03/08 02:28:41;;;;;;;65.30;31.33;;;;;;;-1.08;100.00;100377.22;5052295;28;20029;-82
2022/03/08 02:31:07;;;;;;;60.70;30.33;;;;;;;-1.02;100.00;100388.34;5051156;28;20396;-81
2022/03/08 02:33:32;;;;;;;57.72;29.65;;;;;;;-1.01;100.00;100386.69;5050999;28;20021;-81
2022/03/08 02:35:58;;;;;;;59.60;28.23;;;;;;;-1.01;100.00;100395.22;5051070;28;20048;-81
2022/03/08 02:38:24;;;;;;;58.17;28.63;;;;;;;-1.14;100.00;100370.31;5051310;28;20119;-81
2022/03/08 02:40:49;;;;;;;49.38;27.25;;;;;;;-1.05;100.00;100390.03;5051779;28;20095;-81
2022/03/08 02:43:15;;;;;;;55.10;27.40;;;;;;;-1.06;100.00;100398.53;5050456;28;20021;-81
2022/03/08 02:45:41;;;;;;;54.05;27.40;;;;;;;-1.09;100.00;100391.69;5050489;28;20123;-82
2022/03/08 02:48:07;;;;;;;56.72;26.88;;;;;;;-1.13;100.00;100387.38;5050781;28;20051;-81
2022/03/08 02:50:32;;;;;;;50.72;25.15;;;;;;;-1.12;100.00;100396.78;5049542;28;20119;-82
2022/03/08 02:52:58;;;;;;;52.00;25.55;;;;;;;-1.20;100.00;100389.84;5049497;28;20792;-81
2022/03/08 02:55:27;;;;;;;50.25;24.67;;;;;;;-1.36;100.00;100381.09;5049630;28;20612;-81
2022/03/08 02:57:53;;;;;;;54.70;26.70;;;;;;;-1.41;100.00;100380.19;5032667;28;20036;-81
2022/03/08 03:00:22;;;;;;;53.10;25.02;;;;;;;-1.37;100.00;100398.16;5049476;28;20604;-81
2022/03/08 03:02:48;;;;;;;51.45;26.20;;;;;;;-1.47;100.00;100406.53;5032492;28;20120;-81
2022/03/08 03:05:14;;;;;;;49.65;26.58;;;;;;;-1.49;100.00;100404.78;5049401;28;20041;-81
2022/03/08 03:07:40;;;;;;;60.08;28.55;;;;;;;-1.49;100.00;100418.41;5032504;28;20102;-81
2022/03/08 03:10:08;;;;;;;53.42;28.00;;;;;;;-1.57;100.00;100423.41;5032702;28;20481;-81
2022/03/08 03:12:34;;;;;;;55.80;28.08;;;;;;;-1.65;100.00;100429.22;5049361;28;20033;-81
2022/03/08 03:14:59;;;;;;;54.47;28.25;;;;;;;-1.67;100.00;100425.81;5049253;28;20029;-81
2022/03/08 03:17:25;;;;;;;56.75;28.95;;;;;;;-1.71;100.00;100431.72;5049366;28;20029;-81
2022/03/08 03:19:50;;;;;;;53.00;26.75;;;;;;;-1.77;100.00;100425.69;5032465;28;20484;-82
2022/03/08 03:22:16;;;;;;;58.08;29.60;;;;;;;-1.85;100.00;100428.94;5050269;28;20036;-81
2022/03/08 03:24:41;;;;;;;63.35;28.58;;;;;;;-1.83;100.00;100435.78;5050328;28;20037;-81
2022/03/08 03:27:06;;;;;;;57.25;30.00;;;;;;;-1.86;100.00;100437.41;5050373;28;20392;-81
2022/03/08 03:29:32;;;;;;;60.38;29.20;;;;;;;-1.88;100.00;100439.94;5050344;28;20049;-81
2022/03/08 03:31:57;;;;;;;57.78;31.10;;;;;;;-1.89;100.00;100435.69;5050100;28;20026;-81
2022/03/08 03:34:22;;;;;;;59.45;30.77;;;;;;;-1.92;100.00;100440.72;5050490;28;20124;-81
2022/03/08 03:36:48;;;;;;;66.30;32.20;;;;;;;-1.95;100.00;100442.38;5050215;28;20021;-81
2022/03/08 03:39:13;;;;;;;61.88;31.63;;;;;;;-2.17;100.00;100416.50;5068913;28;20407;-81
2022/03/08 03:41:39;;;;;;;55.92;30.08;;;;;;;-2.22;100.00;100414.69;5069101;28;20040;-81
2022/03/08 03:44:04;;;;;;;61.55;31.98;;;;;;;-2.08;100.00;100452.38;5068723;28;20041;-81
2022/03/08 03:46:30;;;;;;;60.72;31.77;;;;;;;-2.14;100.00;100439.53;5052116;28;20760;-81
2022/03/08 03:48:55;;;;;;;66.93;32.40;;;;;;;-2.12;100.00;100445.50;5052159;28;20032;-81
2022/03/08 03:51:21;;;;;;;65.90;32.20;;;;;;;-2.16;100.00;100442.88;5052386;28;20028;-80
2022/03/08 03:53:46;;;;;;;62.40;31.40;;;;;;;-2.19;100.00;100443.69;5054246;28;20036;-80
2022/03/08 03:56:12;;;;;;;65.30;31.38;;;;;;;-2.23;100.00;100444.47;5056127;28;20060;-81
2022/03/08 03:58:37;;;;;;;64.35;31.90;;;;;;;-2.22;100.00;100447.88;5073136;28;20129;-81
2022/03/08 04:01:04;;;;;;;67.25;32.72;;;;;;;-2.30;100.00;100445.19;5072513;28;20052;-80
2022/03/08 04:03:29;;;;;;;62.85;29.80;;;;;;;-2.35;100.00;100439.13;5055926;28;20024;-81
2022/03/08 04:05:55;;;;;;;62.40;32.42;;;;;;;-2.38;100.00;100446.72;5055590;28;20046;-80
2022/03/08 04:08:20;;;;;;;61.17;31.35;;;;;;;-2.38;100.00;100451.84;5055783;28;20039;-81
2022/03/08 04:10:55;;;;;;;65.95;32.38;;;;;;;-2.57;100.00;100423.44;5053222;28;20040;-80
2022/03/08 04:13:20;;;;;;;66.90;32.28;;;;;;;-2.36;100.00;100458.69;5053798;28;20028;-81
2022/03/08 04:15:46;;;;;;;61.47;31.30;;;;;;;-2.51;100.00;100422.69;5054984;28;20040;-81
2022/03/08 04:18:14;;;;;;;60.28;30.30;;;;;;;-2.45;100.00;100437.22;5053787;28;20542;-81
2022/03/08 04:20:39;;;;;;;60.78;29.98;;;;;;;-2.43;100.00;100445.78;5053717;28;20125;-80
2022/03/08 04:23:05;;;;;;;57.83;29.00;;;;;;;-2.41;100.00;100456.88;5053416;28;20484;-81
2022/03/08 04:25:31;;;;;;;55.13;28.73;;;;;;;-2.42;100.00;100452.59;5053518;28;20460;-81
2022/03/08 04:27:56;;;;;;;58.15;29.75;;;;;;;-2.44;100.00;100457.69;5053126;28;20155;-81
2022/03/08 04:30:22;;;;;;;63.85;30.58;;;;;;;-2.39;100.00;100463.72;5053386;28;20032;-81
2022/03/08 04:32:50;;;;;;;57.40;30.65;;;;;;;-2.39;100.00;100465.44;5054850;28;20547;-81
2022/03/08 04:35:16;;;;;;;63.88;29.58;;;;;;;-2.40;100.00;100466.22;5053391;28;20082;-81
2022/03/08 04:37:41;;;;;;;59.58;28.48;;;;;;;-2.46;100.00;100463.56;5053395;28;20025;-80
2022/03/08 04:40:08;;;;;;;56.10;29.00;;;;;;;-2.38;100.00;100472.25;5053042;28;20025;-81
2022/03/08 04:42:33;;;;;;;54.17;28.33;;;;;;;-2.50;100.00;100442.25;5054459;28;20108;-81
2022/03/08 04:44:59;;;;;;;54.70;29.42;;;;;;;-2.36;100.00;100475.66;5052783;28;20052;-81
2022/03/08 04:47:24;;;;;;;54.80;28.17;;;;;;;-2.35;100.00;100473.16;5053020;28;20045;-81
2022/03/08 04:49:50;;;;;;;49.80;26.15;;;;;;;-2.37;100.00;100456.09;5052687;28;20025;-81
2022/03/08 04:52:15;;;;;;;42.97;23.63;;;;;;;-2.14;100.00;100493.13;5052952;28;20025;-81
2022/03/08 04:54:40;;;;;;;42.03;21.65;;;;;;;-2.09;100.00;100480.44;5054220;28;20077;-81
2022/03/08 04:57:06;;;;;;;44.88;23.38;;;;;;;-1.99;100.00;100482.31;5052695;28;20392;-81
2022/03/08 04:59:31;;;;;;;41.25;21.30;;;;;;;-1.89;100.00;100483.34;5054316;28;20064;-81
2022/03/08 05:01:57;;;;;;;38.72;21.27;;;;;;;-1.77;100.00;100481.84;5054127;28;20115;-81
2022/03/08 05:04:22;;;;;;;38.60;19.90;;;;;;;-1.64;100.00;100485.47;5050525;28;20044;-81
2022/03/08 05:06:48;;;;;;;33.85;17.90;;;;;;;-1.55;100.00;100484.75;5051474;28;20099;-81
2022/03/08 05:09:13;;;;;;;33.08;18.38;;;;;;;-1.46;100.00;100476.38;5051618;28;20037;-81
2022/03/08 05:11:39;;;;;;;34.30;18.17;;;;;;;-1.40;100.00;100472.19;5034810;28;20037;-81
2022/03/08 05:14:05;;;;;;;32.50;17.75;;;;;;;-1.30;100.00;100478.31;5051511;28;20147;-81
2022/03/08 05:16:30;;;;;;;39.08;20.33;;;;;;;-1.23;100.00;100480.09;5051724;28;20094;-81
2022/03/08 05:18:56;;;;;;;36.20;18.98;;;;;;;-1.16;100.00;100473.41;5051005;28;20442;-82
2022/03/08 05:21:22;;;;;;;37.72;18.70;;;;;;;-1.09;100.00;100478.63;5051215;28;20033;-81
2022/03/08 05:23:47;;;;;;;34.83;19.23;;;;;;;-1.12;100.00;100458.13;5034393;28;20044;-81
2022/03/08 05:26:12;;;;;;;37.45;19.38;;;;;;;-1.01;100.00;100477.03;5051187;28;20047;-82
2022/03/08 05:28:39;;;;;;;37.00;18.30;;;;;;;-0.86;100.00;100493.41;5051135;28;20086;-81
2022/03/08 05:31:05;;;;;;;32.13;18.15;;;;;;;-0.84;100.00;100477.25;5050954;28;20435;-81
2022/03/08 05:33:30;;;;;;;35.15;18.13;;;;;;;-0.81;100.00;100477.28;5051137;28;20083;-81
2022/03/08 05:35:55;;;;;;;30.50;16.67;;;;;;;-0.74;100.00;100487.59;5070726;28;20563;-81
2022/03/08 05:38:21;;;;;;;30.15;16.13;;;;;;;-0.74;100.00;100475.66;5071378;28;20041;-81
2022/03/08 05:40:46;;;;;;;32.33;17.02;;;;;;;-0.71;100.00;100478.25;5070900;28;20104;-81
2022/03/08 05:43:11;;;;;;;32.72;16.58;;;;;;;-0.73;100.00;100472.25;5070648;28;20032;-81
2022/03/08 05:45:37;;;;;;;33.15;16.13;;;;;;;-0.51;100.00;100501.50;5070774;28;20052;-82
2022/03/08 05:48:02;;;;;;;31.58;15.57;;;;;;;-0.50;100.00;100503.25;5070487;28;20102;-81
2022/03/08 05:50:28;;;;;;;29.13;16.90;;;;;;;-0.48;100.00;100510.94;5070757;28;20145;-81
2022/03/08 05:52:53;;;;;;;28.67;15.85;;;;;;;-0.44;100.00;100507.56;5070753;28;20032;-81
2022/03/08 05:55:19;;;;;;;29.23;16.10;;;;;;;-0.37;100.00;100519.63;5070653;28;20041;-81
2022/03/08 05:57:44;;;;;;;28.25;15.57;;;;;;;-0.36;100.00;100511.94;5070404;28;20151;-81
2022/03/08 06:00:11;;;;;;;29.83;15.77;;;;;;;-0.29;100.00;100528.25;5070715;28;20040;-80
2022/03/08 06:02:36;;;;;;;33.55;17.10;;;;;;;-0.28;100.00;100527.38;5070380;28;20033;-81
2022/03/08 06:05:02;;;;;;;28.92;15.38;;;;;;;-0.25;100.00;100532.56;5070200;28;20036;-81
2022/03/08 06:07:27;;;;;;;26.05;14.43;;;;;;;-0.20;100.00;100530.03;5056859;28;20582;-81
2022/03/08 06:09:53;;;;;;;27.70;15.27;;;;;;;-0.15;100.00;100523.25;5051321;28;20033;-81
2022/03/08 06:12:18;;;;;;;25.55;15.07;;;;;;;-0.17;100.00;100517.25;5051524;28;20029;-81
2022/03/08 06:14:44;;;;;;;39.20;18.13;;;;;;;-0.06;100.00;100524.22;5051761;28;20496;-81
2022/03/08 06:17:09;;;;;;;196.77;69.05;;;;;;;0.03;100.00;100533.69;5051137;28;20025;-81
2022/03/08 06:19:35;;;;;;;172.45;60.72;;;;;;;0.02;100.00;100526.84;5052726;28;20029;-81
2022/03/08 06:22:01;;;;;;;86.38;38.00;;;;;;;0.06;100.00;100522.63;5052375;28;20091;-81
2022/03/08 06:24:26;;;;;;;67.55;35.22;;;;;;;0.09;100.00;100517.53;5051298;28;20455;-81
2022/03/08 06:26:52;;;;;;;95.28;41.97;;;;;;;0.15;100.00;100526.13;5050916;28;20025;-81
2022/03/08 06:29:17;;;;;;;65.85;34.22;;;;;;;0.14;100.00;100515.88;5051254;28;20052;-81
2022/03/08 06:31:43;;;;;;;41.95;21.27;;;;;;;0.26;100.00;100520.28;5051409;28;20021;-81
2022/03/08 06:34:08;;;;;;;39.90;21.33;;;;;;;0.32;100.00;100530.56;5052344;28;20692;-81
2022/03/08 06:36:34;;;;;;;84.95;42.53;;;;;;;0.40;100.00;100544.31;5051164;28;20354;-81
2022/03/08 06:39:00;;;;;;;56.00;27.58;;;;;;;0.43;100.00;100542.63;5050852;28;20479;-81
2022/03/08 06:41:27;;;;;;;45.40;23.40;;;;;;;0.42;100.00;100532.34;5050854;28;20025;-81
2022/03/08 06:43:52;;;;;;;39.28;21.40;;;;;;;0.44;100.00;100535.78;5050858;28;20044;-81
2022/03/08 06:46:18;;;;;;;62.00;32.58;;;;;;;0.51;100.00;100537.56;5050887;28;20102;-81
2022/03/08 06:48:43;;;;;;;66.47;35.70;;;;;;;0.57;100.00;100545.31;5050759;28;20029;-81
2022/03/08 06:51:09;;;;;;;62.75;33.85;;;;;;;0.64;100.00;100553.91;5050541;28;20052;-81
2022/03/08 06:53:34;;;;;;;77.82;41.50;;;;;;;0.70;100.00;100551.38;5050674;28;20021;-81
2022/03/08 06:56:00;;;;;;;53.53;29.70;;;;;;;0.60;100.00;100537.66;5051756;28;20037;-81
2022/03/08 06:58:26;;;;;;;46.53;25.45;;;;;;;0.68;100.00;100532.59;5050940;28;20052;-81
2022/03/08 07:00:52;;;;;;;36.95;20.73;;;;;;;0.84;100.00;100551.47;5052208;28;20025;-81
2022/03/08 07:03:17;;;;;;;45.45;23.90;;;;;;;0.86;100.00;100544.66;5050629;28;20033;-81
2022/03/08 07:05:43;;;;;;;42.50;24.15;;;;;;;0.98;100.00;100543.06;5050677;28;20033;-81
2022/03/08 07:08:09;;;;;;;44.17;23.60;;;;;;;1.06;100.00;100549.94;5050338;28;20028;-81
2022/03/08 07:10:35;;;;;;;81.47;43.55;;;;;;;1.10;100.00;100537.16;5050486;28;20033;-82
2022/03/08 07:13:00;;;;;;;127.60;77.90;;;;;;;1.16;100.00;100531.19;5050321;28;20124;-81
2022/03/08 07:15:26;;;;;;;107.32;66.63;;;;;;;1.24;100.00;100535.50;5050376;28;20035;-81
2022/03/08 07:17:51;;;;;;;58.42;32.00;;;;;;;1.34;100.00;100540.69;5051722;28;20075;-81
2022/03/08 07:20:17;;;;;;;46.72;25.30;;;;;;;1.38;100.00;100537.28;5050356;28;20031;-82
2022/03/08 07:22:43;;;;;;;40.17;22.75;;;;;;;1.43;100.00;100533.91;5050498;28;20057;-82
2022/03/08 07:25:09;;;;;;;44.00;22.08;;;;;;;1.58;100.00;100543.38;5051578;28;20040;-82
2022/03/08 07:27:35;;;;;;;42.05;22.33;;;;;;;1.61;100.00;100539.97;5051086;28;20059;-82
2022/03/08 07:30:02;;;;;;;37.35;22.05;;;;;;;1.68;100.00;100542.53;5054607;28;20044;-81
2022/03/08 07:32:28;;;;;;;37.55;20.67;;;;;;;1.81;100.00;100551.16;5054630;28;20032;-81
2022/03/08 07:34:53;;;;;;;42.97;23.42;;;;;;;1.84;100.00;100542.59;5055763;28;20392;-82
2022/03/08 07:37:18;;;;;;;53.17;28.00;;;;;;;1.71;100.00;100527.16;5054282;28;20107;-81
2022/03/08 07:39:44;;;;;;;39.63;23.52;;;;;;;1.88;100.00;100562.31;5054329;28;20488;-82
2022/03/08 07:42:09;;;;;;;40.72;20.02;;;;;;;1.87;100.00;100564.03;5072801;28;20123;-81
2022/03/08 07:44:36;;;;;;;31.20;18.55;;;;;;;1.92;100.00;100575.16;5073107;28;20055;-81
2022/03/08 07:47:03;;;;;;;38.65;20.65;;;;;;;1.92;100.00;100564.03;5072610;28;20416;-81
2022/03/08 07:49:28;;;;;;;35.65;20.90;;;;;;;1.86;100.00;100543.50;5056142;28;20049;-81
2022/03/08 07:51:53;;;;;;;51.40;25.10;;;;;;;1.93;100.00;100543.47;5072827;28;20083;-82
2022/03/08 07:54:20;;;;;;;49.75;25.23;;;;;;;2.15;100.00;100566.66;5072703;28;20548;-82
2022/03/08 07:56:45;;;;;;;53.75;26.98;;;;;;;2.29;100.00;100570.13;5073008;28;20040;-81
2022/03/08 07:59:11;;;;;;;63.03;31.85;;;;;;;2.47;100.00;100574.44;5072572;28;20024;-82
2022/03/08 08:01:36;;;;;;;45.63;23.35;;;;;;;2.43;100.00;100554.72;5055984;28;20048;-81
2022/03/08 08:04:02;;;;;;;33.63;20.85;;;;;;;2.59;100.00;100568.47;5072645;28;20055;-82
2022/03/08 08:06:28;;;;;;;40.72;21.77;;;;;;;2.82;100.00;100576.16;5072884;28;20032;-82
2022/03/08 08:08:53;;;;;;;47.20;25.52;;;;;;;3.07;100.00;100570.13;5072459;28;20028;-82
2022/03/08 08:11:18;;;;;;;50.75;26.10;;;;;;;3.23;100.00;100558.97;5052262;28;20040;-81
2022/03/08 08:13:44;;;;;;;40.88;23.67;;;;;;;3.63;100.00;100568.31;5052547;28;20563;-82
2022/03/08 08:16:09;;;;;;;32.97;20.60;;;;;;;3.97;100.00;100569.88;5052406;28;20049;-82
2022/03/08 08:18:35;;;;;;;35.00;20.35;;;;;;;4.27;99.94;100557.69;5035896;28;20413;-82
2022/03/08 08:21:01;;;;;;;36.00;20.50;;;;;;;4.45;99.30;100539.47;5052392;28;20124;-82
2022/03/08 08:23:27;;;;;;;26.70;16.60;;;;;;;4.84;97.48;100546.91;5032292;28;20103;-82
2022/03/08 08:25:53;;;;;;;29.38;17.23;;;;;;;5.05;96.02;100554.47;5015885;28;20044;-81
2022/03/08 08:28:19;;;;;;;23.23;14.88;;;;;;;5.04;94.57;100551.91;5032202;28;20041;-81
2022/03/08 08:30:44;;;;;;;24.70;15.38;;;;;;;4.97;94.02;100545.94;5032282;28;20148;-82
2022/03/08 08:33:10;;;;;;;26.27;15.48;;;;;;;5.22;93.59;100544.84;5032185;28;20041;-82
2022/03/08 08:35:35;;;;;;;24.70;14.23;;;;;;;5.56;92.76;100541.84;5032442;28;20036;-82
2022/03/08 08:38:01;;;;;;;26.52;16.77;;;;;;;5.87;90.20;100562.19;5031980;28;20037;-82
2022/03/08 08:40:28;;;;;;;24.52;15.80;;;;;;;5.49;88.77;100541.09;5032232;28;20119;-82
2022/03/08 08:42:53;;;;;;;19.17;13.90;;;;;;;5.38;88.47;100550.69;5035371;28;20037;-82
2022/03/08 08:45:18;;;;;;;28.15;17.98;;;;;;;5.12;88.86;100563.88;5051726;28;20067;-82
2022/03/08 08:47:44;;;;;;;25.35;16.42;;;;;;;5.29;90.03;100550.78;5052191;28;20029;-82
2022/03/08 08:50:10;;;;;;;23.73;15.27;;;;;;;5.35;90.39;100535.22;5034903;28;20047;-82
2022/03/08 08:52:35;;;;;;;22.48;15.52;;;;;;;5.62;90.68;100552.13;5035028;28;20578;-82
2022/03/08 08:55:00;;;;;;;27.25;15.80;;;;;;;5.84;88.79;100546.69;5047200;28;20064;-82
2022/03/08 08:57:26;;;;;;;23.38;15.35;;;;;;;6.06;88.57;100555.06;5054439;28;20048;-83
2022/03/08 08:59:52;;;;;;;27.27;16.00;;;;;;;6.17;88.14;100559.19;5054343;28;20037;-82
2022/03/08 09:02:18;;;;;;;23.63;15.70;;;;;;;6.00;87.62;100558.59;5052757;28;20071;-82
2022/03/08 09:04:43;;;;;;;22.58;15.32;;;;;;;5.70;87.45;100547.72;5054445;28;20396;-82
2022/03/08 09:07:08;;;;;;;21.00;14.65;;;;;;;5.50;88.18;100555.72;5052468;28;20063;-82
2022/03/08 09:09:34;;;;;;;25.83;16.52;;;;;;;5.40;88.79;100550.69;5054257;28;20040;-83
2022/03/08 09:11:59;;;;;;;25.15;16.25;;;;;;;5.24;88.77;100550.84;5054440;28;20029;-82
2022/03/08 09:14:25;;;;;;;28.88;17.95;;;;;;;5.15;89.29;100555.25;5053722;28;20025;-82
2022/03/08 09:16:51;;;;;;;26.83;15.77;;;;;;;5.16;89.17;100560.38;5053996;28;20051;-82
2022/03/08 09:19:16;;;;;;;22.23;14.25;;;;;;;4.91;88.99;100546.00;5052351;28;20124;-82
2022/03/08 09:21:42;;;;;;;24.02;16.55;;;;;;;4.82;89.67;100551.25;5052509;28;20080;-82
2022/03/08 09:24:07;;;;;;;26.85;18.17;;;;;;;4.88;90.04;100558.91;5052153;28;20025;-83
2022/03/08 09:26:33;;;;;;;40.03;19.67;;;;;;;4.80;90.07;100538.34;5052583;28;20033;-82
2022/03/08 09:28:58;;;;;;;27.50;18.15;;;;;;;4.85;90.14;100549.50;5052475;28;20021;-82
2022/03/08 09:31:24;;;;;;;23.75;14.95;;;;;;;4.95;88.80;100561.44;5052297;28;20025;-82
2022/03/08 09:33:50;;;;;;;21.38;14.85;;;;;;;4.98;88.44;100542.50;5052344;28;20036;-83
2022/03/08 09:36:16;;;;;;;23.38;14.45;;;;;;;5.05;88.06;100551.88;5051979;28;20460;-82
2022/03/08 09:38:41;;;;;;;23.40;15.27;;;;;;;5.06;87.67;100568.25;5052136;28;20029;-82
2022/03/08 09:41:07;;;;;;;21.23;15.65;;;;;;;5.05;87.85;100574.25;5053379;28;20124;-82
2022/03/08 09:43:36;;;;;;;25.63;15.10;;;;;;;5.15;87.93;100575.91;5052264;28;20024;-82
2022/03/08 09:46:02;;;;;;;22.13;15.05;;;;;;;5.11;87.38;100548.41;5053272;28;20392;-82
2022/03/08 09:48:28;;;;;;;20.75;15.82;;;;;;;5.18;87.17;100548.31;5051955;28;20075;-82
2022/03/08 09:50:54;;;;;;;23.08;16.85;;;;;;;5.06;87.14;100548.44;5051387;28;20037;-82
2022/03/08 09:53:19;;;;;;;20.83;15.23;;;;;;;4.98;87.41;100545.94;5051651;28;20028;-83
2022/03/08 09:55:45;;;;;;;22.92;14.23;;;;;;;4.89;87.65;100538.28;5053648;28;20029;-82
2022/03/08 09:58:10;;;;;;;24.13;15.93;;;;;;;4.79;87.39;100554.69;5051790;28;20104;-82
2022/03/08 10:00:36;;;;;;;26.23;15.25;;;;;;;4.49;87.58;100568.69;5051893;28;20120;-82
2022/03/08 10:03:09;;;;;;;21.58;14.25;;;;;;;4.26;87.79;100548.22;5052029;28;20472;-82
2022/03/08 10:05:40;;;;;;;26.75;19.08;;;;;;;4.18;89.04;100552.59;5056895;28;20056;-82
2022/03/08 10:08:12;;;;;;;29.75;19.40;;;;;;;4.45;89.27;100552.38;5072750;28;20464;-82
2022/03/08 10:10:49;;;;;;;31.25;18.63;;;;;;;4.63;89.19;100556.53;5060412;28;20050;-82
2022/03/08 10:13:15;;;;;;;22.58;17.13;;;;;;;4.81;89.22;100549.53;5060621;28;20032;-82
2022/03/08 10:15:41;;;;;;;29.13;17.67;;;;;;;4.98;89.30;100558.84;5066245;28;20042;-82
2022/03/08 10:18:07;;;;;;;17.42;12.88;;;;;;;4.89;87.21;100552.91;5051153;28;20025;-82
2022/03/08 10:20:34;;;;;;;23.42;15.73;;;;;;;4.71;86.47;100559.91;5051378;28;20029;-82
2022/03/08 10:23:02;;;;;;;24.90;16.13;;;;;;;4.61;86.46;100547.13;5052892;28;20567;-82
2022/03/08 10:25:30;;;;;;;25.45;17.08;;;;;;;4.50;85.13;100536.88;5051152;28;20087;-82
2022/03/08 10:27:55;;;;;;;21.75;15.07;;;;;;;4.54;85.66;100540.28;5051352;28;20028;-82
2022/03/08 10:30:26;;;;;;;29.75;16.33;;;;;;;4.41;86.07;100529.19;5052258;28;20115;-82
2022/03/08 10:32:59;;;;;;;24.27;16.33;;;;;;;4.39;86.60;100531.81;5051055;28;20503;-82
2022/03/08 10:35:26;;;;;;;21.65;14.13;;;;;;;4.54;87.10;100538.56;5051060;28;20427;-82
2022/03/08 10:37:52;;;;;;;19.88;13.70;;;;;;;4.51;85.52;100533.44;5052531;28;20100;-82
2022/03/08 10:40:34;;;;;;;19.63;13.95;;;;;;;4.65;85.59;100535.91;5050872;28;20121;-82
2022/03/08 10:43:07;;;;;;;25.13;15.27;;;;;;;4.77;84.71;100522.03;5051052;28;20115;-82
2022/03/08 10:45:36;;;;;;;22.58;13.13;;;;;;;4.90;83.54;100539.97;5052310;28;20029;-82
2022/03/08 10:48:06;;;;;;;26.58;16.40;;;;;;;4.90;83.73;100536.56;5052112;28;20556;-82
2022/03/08 10:50:34;;;;;;;25.65;13.48;;;;;;;4.65;82.97;100541.06;5050980;28;20033;-82
2022/03/08 10:53:03;;;;;;;19.00;13.32;;;;;;;4.41;83.21;100529.19;5052143;28;20036;-82
2022/03/08 10:55:33;;;;;;;24.98;13.75;;;;;;;4.37;83.42;100530.94;5050550;28;20502;-82
2022/03/08 10:58:01;;;;;;;18.80;12.85;;;;;;;4.21;83.76;100501.84;5053640;28;20405;-82
2022/03/08 11:00:33;;;;;;;17.55;12.40;;;;;;;4.43;84.73;100523.19;5051997;28;20490;-82